createdAt,value
2022-12-31T00:01:17.193Z,84.49
2022-12-31T00:03:47.394Z,84.53
2022-12-31T00:06:19.329Z,84.78
2022-12-31T00:08:49.183Z,84.80
2022-12-31T00:11:18.978Z,84.69
2022-12-31T00:13:49.217Z,84.65
2022-12-31T00:16:23.188Z,84.55
2022-12-31T00:18:55.093Z,84.41
2022-12-31T00:21:25.361Z,84.68
2022-12-31T00:23:55.081Z,84.67
2022-12-31T00:26:26.812Z,84.58
2022-12-31T00:28:57.989Z,84.49
2022-12-31T00:31:32.002Z,84.69
2022-12-31T00:34:02.276Z,84.46
2022-12-31T00:36:34.681Z,84.56
2022-12-31T00:39:05.439Z,84.74
2022-12-31T00:41:35.602Z,84.81
2022-12-31T00:44:05.626Z,84.74
2022-12-31T00:49:05.736Z,84.84
2022-12-31T00:51:35.158Z,84.87
2022-12-31T00:54:04.708Z,84.56
2022-12-31T00:56:34.879Z,84.54
2022-12-31T00:59:05.091Z,84.68
2022-12-31T01:01:39.601Z,84.63
2022-12-31T01:04:11.038Z,84.98
2022-12-31T01:06:41.368Z,84.98
2022-12-31T01:09:12.207Z,84.96
2022-12-31T01:11:41.605Z,85.19
2022-12-31T01:14:12.864Z,85.58
2022-12-31T01:16:46.664Z,85.73
2022-12-31T01:19:19.138Z,85.96
2022-12-31T01:21:49.618Z,86.50
2022-12-31T01:24:19.935Z,86.01
2022-12-31T01:26:51.180Z,86.39
2022-12-31T01:29:20.707Z,86.36
2022-12-31T01:31:52.735Z,86.45
2022-12-31T01:34:22.115Z,86.64
2022-12-31T01:36:51.504Z,86.91
2022-12-31T01:39:20.875Z,86.94
2022-12-31T01:41:50.944Z,87.29
2022-12-31T01:44:51.642Z,87.29
2022-12-31T01:47:33.506Z,87.20
2022-12-31T01:50:08.975Z,87.17
2022-12-31T01:52:41.099Z,87.54
2022-12-31T01:55:17.382Z,87.59
2022-12-31T01:57:50.328Z,87.49
2022-12-31T02:00:20.008Z,87.53
2022-12-31T02:02:52.550Z,87.49
2022-12-31T02:05:29.300Z,87.98
2022-12-31T02:08:00.120Z,87.82
2022-12-31T02:10:29.535Z,87.84
2022-12-31T02:12:59.091Z,88.06
2022-12-31T02:15:37.074Z,87.92
2022-12-31T02:18:15.405Z,87.82
2022-12-31T02:21:10.159Z,88.01
2022-12-31T02:24:20.536Z,87.90
2022-12-31T02:26:59.222Z,87.68
2022-12-31T02:30:00.956Z,88.15
2022-12-31T02:32:45.037Z,88.15
2022-12-31T02:35:20.007Z,87.95
2022-12-31T02:37:53.599Z,88.34
2022-12-31T02:40:24.897Z,88.08
2022-12-31T02:42:55.745Z,88.28
2022-12-31T02:45:32.204Z,87.96
2022-12-31T02:48:25.698Z,87.88
2022-12-31T02:51:08.476Z,87.39
2022-12-31T02:54:00.006Z,87.69
2022-12-31T02:56:34.056Z,87.49
2022-12-31T02:59:23.818Z,87.53
2022-12-31T03:02:11.564Z,87.48
2022-12-31T03:04:45.948Z,87.59
2022-12-31T03:07:20.697Z,87.39
2022-12-31T03:09:50.382Z,87.52
2022-12-31T03:12:33.872Z,87.74
2022-12-31T03:15:06.684Z,87.89
2022-12-31T03:17:36.603Z,88.14
2022-12-31T03:20:22.374Z,87.96
2022-12-31T03:22:51.759Z,88.16
2022-12-31T03:25:34.338Z,88.59
2022-12-31T03:28:05.349Z,88.47
2022-12-31T03:30:36.407Z,88.55
2022-12-31T03:33:07.917Z,88.78
2022-12-31T03:35:41.309Z,89.01
2022-12-31T03:38:11.449Z,89.27
2022-12-31T03:40:42.757Z,89.27
2022-12-31T03:43:12.189Z,89.21
2022-12-31T03:45:41.947Z,89.51
2022-12-31T03:48:12.480Z,89.48
2022-12-31T03:50:44.424Z,89.54
2022-12-31T03:53:14.028Z,89.45
2022-12-31T03:55:43.453Z,89.61
2022-12-31T03:58:12.899Z,89.56
2022-12-31T04:00:42.331Z,89.74
2022-12-31T04:03:12.056Z,90.10
2022-12-31T04:05:44.119Z,90.26
2022-12-31T04:08:13.538Z,90.16
2022-12-31T04:10:42.932Z,90.07
2022-12-31T04:13:12.317Z,90.26
2022-12-31T04:15:41.836Z,90.27
2022-12-31T04:18:11.288Z,90.38
2022-12-31T04:20:40.672Z,90.28
2022-12-31T04:23:12.692Z,90.09
2022-12-31T04:25:42.164Z,90.18
2022-12-31T04:28:13.878Z,90.00
2022-12-31T04:30:43.231Z,90.19
2022-12-31T04:33:12.646Z,90.27
2022-12-31T04:35:42.014Z,90.78
2022-12-31T04:38:14.030Z,90.58
2022-12-31T04:41:03.534Z,90.68
2022-12-31T04:43:33.345Z,90.57
2022-12-31T04:46:03.721Z,90.73
2022-12-31T04:48:33.592Z,90.99
2022-12-31T04:51:03.373Z,90.89
2022-12-31T04:53:35.411Z,91.17
2022-12-31T04:56:04.873Z,90.97
2022-12-31T04:58:34.590Z,91.00
2022-12-31T05:01:04.567Z,90.99
2022-12-31T05:03:34.743Z,91.42
2022-12-31T05:06:04.760Z,91.21
2022-12-31T05:08:36.781Z,91.64
2022-12-31T05:11:06.739Z,91.64
2022-12-31T05:13:36.544Z,91.37
2022-12-31T05:16:06.517Z,91.55
2022-12-31T05:18:37.880Z,91.41
2022-12-31T05:21:08.964Z,91.44
2022-12-31T05:23:40.933Z,91.21
2022-12-31T05:26:10.396Z,91.02
2022-12-31T05:28:39.865Z,90.89
2022-12-31T05:31:09.397Z,90.90
2022-12-31T05:33:39.077Z,90.66
2022-12-31T05:36:08.972Z,90.71
2022-12-31T05:38:41.167Z,90.60
2022-12-31T05:41:11.563Z,90.43
2022-12-31T05:43:40.993Z,90.23
2022-12-31T05:46:11.017Z,90.39
2022-12-31T05:48:40.519Z,90.30
2022-12-31T05:51:09.944Z,90.20
2022-12-31T05:53:41.889Z,90.37
2022-12-31T05:56:11.267Z,90.51
2022-12-31T05:58:40.673Z,90.31
2022-12-31T06:01:10.112Z,90.21
2022-12-31T06:03:39.638Z,90.28
2022-12-31T06:06:09.670Z,90.17
2022-12-31T06:08:41.675Z,89.89
2022-12-31T06:11:11.061Z,89.80
2022-12-31T06:13:40.484Z,89.96
2022-12-31T06:16:10.749Z,89.77
2022-12-31T06:18:40.411Z,89.75
2022-12-31T06:21:09.988Z,89.94
2022-12-31T06:23:43.018Z,89.59
2022-12-31T06:26:12.474Z,89.65
2022-12-31T06:28:42.186Z,89.79
2022-12-31T06:31:15.157Z,90.31
2022-12-31T06:33:46.947Z,90.05
2022-12-31T06:36:19.229Z,90.26
2022-12-31T06:38:51.986Z,90.71
2022-12-31T06:41:21.201Z,90.97
2022-12-31T06:43:50.998Z,91.25
2022-12-31T06:46:21.188Z,90.86
2022-12-31T06:48:50.630Z,90.96
2022-12-31T06:51:22.539Z,90.92
2022-12-31T06:53:54.805Z,90.75
2022-12-31T06:56:33.189Z,91.07
2022-12-31T06:59:04.346Z,91.29
2022-12-31T07:01:52.083Z,91.12
2022-12-31T07:04:58.120Z,91.06
2022-12-31T07:07:35.610Z,91.21
2022-12-31T07:10:17.011Z,91.18
2022-12-31T07:13:01.897Z,91.29
2022-12-31T07:15:48.472Z,91.42
2022-12-31T07:18:26.720Z,91.68
2022-12-31T07:20:57.039Z,91.75
2022-12-31T07:23:27.227Z,91.57
2022-12-31T07:26:07.334Z,91.42
2022-12-31T07:28:52.548Z,91.35
2022-12-31T07:31:33.569Z,91.39
2022-12-31T07:34:07.180Z,91.56
2022-12-31T07:36:56.639Z,91.73
2022-12-31T07:39:34.612Z,91.75
2022-12-31T07:42:14.035Z,91.65
2022-12-31T07:45:01.238Z,91.71
2022-12-31T07:47:32.276Z,91.52
2022-12-31T07:50:02.414Z,91.55
2022-12-31T07:52:32.451Z,91.55
2022-12-31T07:55:01.852Z,91.35
2022-12-31T07:57:39.747Z,91.41
2022-12-31T08:00:11.993Z,91.57
2022-12-31T08:03:03.726Z,91.47
2022-12-31T08:05:41.351Z,91.74
2022-12-31T08:08:26.168Z,91.52
2022-12-31T08:11:09.244Z,91.48
2022-12-31T08:13:42.965Z,91.49
2022-12-31T08:16:14.639Z,91.21
2022-12-31T08:18:44.616Z,90.92
2022-12-31T08:21:23.204Z,91.24
2022-12-31T08:24:04.282Z,91.24
2022-12-31T08:26:44.139Z,91.07
2022-12-31T08:29:35.988Z,91.06
2022-12-31T08:32:13.389Z,90.95
2022-12-31T08:34:53.613Z,90.92
2022-12-31T08:37:32.873Z,90.84
2022-12-31T08:40:22.459Z,90.79
2022-12-31T08:43:08.733Z,91.29
2022-12-31T08:45:44.526Z,91.21
2022-12-31T08:48:22.221Z,91.07
2022-12-31T08:50:52.236Z,90.91
2022-12-31T08:53:22.377Z,90.67
2022-12-31T08:55:55.582Z,90.20
2022-12-31T08:58:39.106Z,90.28
2022-12-31T09:01:12.023Z,90.01
2022-12-31T09:04:01.677Z,90.05
2022-12-31T09:06:36.557Z,89.89
2022-12-31T09:09:13.430Z,89.99
2022-12-31T09:11:56.182Z,90.16
2022-12-31T09:14:40.955Z,90.18
2022-12-31T09:17:31.873Z,90.04
2022-12-31T09:20:01.919Z,90.17
2022-12-31T09:22:31.922Z,89.96
2022-12-31T09:25:01.981Z,90.29
2022-12-31T09:27:39.853Z,89.93
2022-12-31T09:30:14.151Z,89.31
2022-12-31T09:33:00.577Z,89.10
2022-12-31T09:35:39.556Z,89.31
2022-12-31T09:38:17.945Z,89.64
2022-12-31T09:41:18.437Z,89.24
2022-12-31T09:44:09.892Z,89.30
2022-12-31T09:47:16.333Z,89.12
2022-12-31T09:50:16.149Z,88.59
2022-12-31T09:53:04.333Z,87.95
2022-12-31T09:55:39.576Z,87.92
2022-12-31T09:58:24.870Z,86.70
2022-12-31T10:00:58.954Z,87.00
2022-12-31T10:03:43.280Z,84.92
2022-12-31T10:06:27.290Z,84.88
2022-12-31T10:09:27.494Z,82.88
2022-12-31T10:12:14.171Z,82.02
2022-12-31T10:14:59.424Z,81.25
2022-12-31T10:17:42.533Z,79.85
2022-12-31T10:20:48.350Z,79.44
2022-12-31T10:23:29.098Z,78.74
2022-12-31T10:26:14.311Z,78.44
2022-12-31T10:28:56.718Z,78.36
2022-12-31T10:31:43.444Z,77.52
2022-12-31T10:34:25.395Z,77.58
2022-12-31T10:36:58.011Z,77.94
2022-12-31T10:39:35.950Z,77.41
2022-12-31T10:42:36.732Z,76.50
2022-12-31T10:45:43.721Z,76.55
2022-12-31T10:48:56.339Z,75.03
2022-12-31T10:51:56.165Z,73.41
2022-12-31T10:55:00.351Z,73.67
2022-12-31T10:57:55.372Z,73.61
2022-12-31T11:00:32.197Z,73.85
2022-12-31T11:03:34.660Z,72.57
2022-12-31T11:06:34.647Z,72.30
2022-12-31T11:09:32.754Z,71.37
2022-12-31T11:12:13.114Z,71.43
2022-12-31T11:14:57.963Z,71.92
2022-12-31T11:17:39.684Z,72.42
2022-12-31T11:20:41.949Z,71.80
2022-12-31T11:23:29.083Z,71.85
2022-12-31T11:26:07.856Z,72.10
2022-12-31T11:28:47.711Z,72.87
2022-12-31T11:31:39.189Z,73.89
2022-12-31T11:34:30.728Z,77.80
2022-12-31T11:37:16.786Z,83.26
2022-12-31T11:39:52.683Z,83.67
2022-12-31T11:42:37.219Z,83.52
2022-12-31T11:45:17.301Z,83.92
2022-12-31T11:48:29.692Z,84.02
2022-12-31T11:50:57.870Z,82.69
2022-12-31T11:54:03.364Z,82.70
2022-12-31T11:56:38.169Z,82.38
2022-12-31T11:59:19.003Z,82.80
2022-12-31T12:01:58.134Z,82.91
2022-12-31T12:04:30.608Z,83.19
2022-12-31T12:07:00.155Z,82.98
2022-12-31T12:09:31.798Z,82.26
2022-12-31T12:12:02.322Z,82.25
2022-12-31T12:14:35.862Z,82.00
2022-12-31T12:17:09.014Z,81.05
2022-12-31T12:19:45.723Z,79.56
2022-12-31T12:22:21.816Z,79.36
2022-12-31T12:24:57.192Z,79.21
2022-12-31T12:27:30.116Z,79.81
2022-12-31T12:29:59.649Z,79.49
2022-12-31T12:32:29.706Z,77.82
2022-12-31T12:35:01.718Z,76.94
2022-12-31T12:37:35.459Z,77.40
2022-12-31T12:40:09.416Z,76.77
2022-12-31T12:42:38.927Z,76.21
2022-12-31T12:45:16.738Z,75.52
2022-12-31T12:47:48.823Z,75.00
2022-12-31T12:50:23.770Z,75.39
2022-12-31T12:53:19.481Z,76.63
2022-12-31T12:55:57.907Z,75.46
2022-12-31T12:58:44.843Z,76.57
2022-12-31T13:01:26.834Z,75.44
2022-12-31T13:04:34.744Z,75.20
2022-12-31T13:07:27.377Z,73.92
2022-12-31T13:10:29.881Z,74.70
2022-12-31T13:13:27.596Z,73.67
2022-12-31T13:16:04.715Z,73.66
2022-12-31T13:18:51.330Z,73.27
2022-12-31T13:21:35.362Z,74.19
2022-12-31T13:24:16.700Z,74.73
2022-12-31T13:26:52.618Z,74.00
2022-12-31T13:29:25.851Z,73.25
2022-12-31T13:31:56.987Z,73.46
2022-12-31T13:34:31.817Z,72.09
2022-12-31T13:37:05.961Z,70.85
2022-12-31T13:39:43.411Z,70.64
2022-12-31T13:42:19.471Z,70.69
2022-12-31T13:44:54.485Z,71.72
2022-12-31T13:47:35.527Z,72.16
2022-12-31T13:50:14.439Z,71.58
2022-12-31T13:52:51.721Z,71.17
2022-12-31T13:55:29.116Z,71.14
2022-12-31T13:58:04.940Z,70.52
2022-12-31T14:00:39.727Z,71.04
2022-12-31T14:03:16.121Z,71.16
2022-12-31T14:05:53.467Z,71.53
2022-12-31T14:08:22.980Z,71.87
2022-12-31T14:11:04.644Z,71.34
2022-12-31T14:13:48.700Z,71.19
2022-12-31T14:16:27.622Z,70.63
2022-12-31T14:19:05.297Z,71.03
2022-12-31T14:21:42.386Z,70.69
2022-12-31T14:24:17.499Z,70.83
2022-12-31T14:26:53.094Z,70.54
2022-12-31T14:29:34.929Z,70.44
2022-12-31T14:32:35.931Z,70.94
2022-12-31T14:35:23.360Z,70.45
2022-12-31T14:37:58.829Z,70.33
2022-12-31T14:40:35.434Z,69.60
2022-12-31T14:43:21.709Z,69.24
2022-12-31T14:46:03.454Z,70.42
2022-12-31T14:48:43.152Z,69.75
2022-12-31T14:51:13.932Z,69.80
2022-12-31T14:53:54.827Z,69.83
2022-12-31T14:56:34.060Z,70.28
2022-12-31T14:59:06.477Z,70.84
2022-12-31T15:01:47.187Z,70.50
2022-12-31T15:04:17.735Z,71.13
2022-12-31T15:07:00.920Z,71.62
2022-12-31T15:09:51.346Z,71.79
2022-12-31T15:12:31.221Z,72.15
2022-12-31T15:15:35.652Z,72.68
2022-12-31T15:18:27.816Z,72.16
2022-12-31T15:21:27.711Z,72.70
2022-12-31T15:23:57.928Z,72.07
2022-12-31T15:26:30.994Z,71.63
2022-12-31T15:29:04.079Z,70.85
2022-12-31T15:31:38.537Z,71.09
2022-12-31T15:34:10.574Z,70.26
2022-12-31T15:36:41.393Z,70.86
2022-12-31T15:39:39.568Z,70.91
2022-12-31T15:42:41.393Z,70.38
2022-12-31T15:45:21.367Z,71.01
2022-12-31T15:47:59.022Z,69.40
2022-12-31T15:50:30.348Z,69.76
2022-12-31T15:53:03.087Z,70.24
2022-12-31T15:55:37.674Z,70.19
2022-12-31T15:58:09.715Z,69.49
2022-12-31T16:00:59.237Z,70.84
2022-12-31T16:03:33.595Z,70.52
2022-12-31T16:06:05.318Z,70.17
2022-12-31T16:08:37.037Z,70.36
2022-12-31T16:11:07.724Z,69.18
2022-12-31T16:13:39.768Z,69.71
2022-12-31T16:16:11.367Z,69.28
2022-12-31T16:18:45.701Z,69.44
2022-12-31T16:21:26.851Z,70.18
2022-12-31T16:23:58.195Z,69.95
2022-12-31T16:26:32.810Z,70.17
2022-12-31T16:29:04.342Z,70.01
2022-12-31T16:31:34.323Z,69.06
2022-12-31T16:34:16.082Z,70.15
2022-12-31T16:36:45.999Z,69.41
2022-12-31T16:39:34.123Z,69.45
2022-12-31T16:42:18.977Z,69.17
2022-12-31T16:44:48.839Z,69.03
2022-12-31T16:47:22.457Z,68.31
2022-12-31T16:50:04.074Z,68.21
2022-12-31T16:52:36.444Z,66.95
2022-12-31T16:55:10.887Z,67.76
2022-12-31T16:57:40.926Z,67.39
2022-12-31T17:00:17.618Z,67.18
2022-12-31T17:02:51.845Z,68.05
2022-12-31T17:05:26.341Z,67.61
2022-12-31T17:07:55.866Z,67.64
2022-12-31T17:10:27.831Z,67.94
2022-12-31T17:15:49.159Z,67.72
2022-12-31T17:18:22.186Z,67.94
2022-12-31T17:20:56.087Z,68.57
2022-12-31T17:23:29.147Z,68.53
2022-12-31T17:26:03.108Z,68.21
2022-12-31T17:28:40.793Z,68.61
2022-12-31T17:31:29.442Z,68.75
2022-12-31T17:34:22.663Z,68.54
2022-12-31T17:36:59.651Z,68.74
2022-12-31T17:39:41.595Z,68.53
2022-12-31T17:42:12.738Z,68.49
2022-12-31T17:44:45.056Z,68.28
2022-12-31T17:47:16.527Z,68.25
2022-12-31T17:49:48.490Z,68.77
2022-12-31T17:52:20.439Z,68.11
2022-12-31T17:54:50.179Z,68.79
2022-12-31T17:57:29.211Z,67.79
2022-12-31T17:59:59.275Z,67.75
2022-12-31T18:02:28.834Z,66.82
2022-12-31T18:04:58.485Z,66.78
2022-12-31T18:07:30.467Z,67.37
2022-12-31T18:09:59.912Z,67.03
2022-12-31T18:12:29.313Z,67.48
2022-12-31T18:14:58.691Z,66.48
2022-12-31T18:17:28.413Z,67.21
2022-12-31T18:20:06.281Z,66.30
2022-12-31T18:22:39.468Z,65.75
2022-12-31T18:25:09.550Z,65.39
2022-12-31T18:27:41.054Z,65.56
2022-12-31T18:30:12.668Z,64.94
2022-12-31T18:32:43.480Z,65.67
2022-12-31T18:35:40.721Z,65.85
2022-12-31T18:38:14.132Z,64.15
2022-12-31T18:40:46.660Z,64.01
2022-12-31T18:43:17.708Z,63.56
2022-12-31T18:45:48.019Z,64.17
2022-12-31T18:48:18.024Z,63.46
2022-12-31T18:50:48.245Z,63.61
2022-12-31T18:53:22.799Z,63.77
2022-12-31T18:55:53.735Z,63.71
2022-12-31T18:58:23.247Z,62.99
2022-12-31T19:00:53.496Z,61.70
2022-12-31T19:03:27.319Z,62.24
2022-12-31T19:05:56.937Z,62.80
2022-12-31T19:08:28.887Z,62.53
2022-12-31T19:10:58.331Z,62.65
2022-12-31T19:13:27.693Z,61.91
2022-12-31T19:15:58.701Z,62.35
2022-12-31T19:18:28.078Z,62.65
2022-12-31T19:20:57.453Z,61.78
2022-12-31T19:23:29.482Z,61.92
2022-12-31T19:25:58.910Z,62.07
2022-12-31T19:28:30.047Z,61.73
2022-12-31T19:30:59.486Z,62.22
2022-12-31T19:33:28.848Z,61.52
2022-12-31T19:35:58.232Z,61.98
2022-12-31T19:38:32.238Z,61.08
2022-12-31T19:41:02.128Z,61.46
2022-12-31T19:43:31.929Z,62.08
2022-12-31T19:46:01.681Z,61.51
2022-12-31T19:48:33.051Z,61.64
2022-12-31T19:51:02.950Z,61.92
2022-12-31T19:53:34.879Z,61.27
2022-12-31T19:56:04.290Z,60.23
2022-12-31T19:58:34.590Z,61.19
2022-12-31T20:01:04.131Z,60.11
2022-12-31T20:03:34.282Z,60.57
2022-12-31T20:06:07.019Z,57.59
2022-12-31T20:08:39.644Z,58.72
2022-12-31T20:11:13.848Z,58.66
2022-12-31T20:13:43.833Z,59.06
2022-12-31T20:16:15.676Z,59.79
2022-12-31T20:18:46.712Z,58.61
2022-12-31T20:21:17.863Z,58.38
2022-12-31T20:23:50.596Z,59.40
2022-12-31T20:26:20.481Z,59.56
2022-12-31T20:28:50.811Z,59.42
2022-12-31T20:31:21.986Z,60.15
2022-12-31T20:33:51.590Z,59.94
2022-12-31T20:36:20.963Z,59.58
2022-12-31T20:38:52.901Z,60.01
2022-12-31T20:41:24.999Z,59.49
2022-12-31T20:43:54.441Z,59.64
2022-12-31T20:46:25.789Z,59.01
2022-12-31T20:48:57.145Z,59.23
2022-12-31T20:51:26.869Z,59.48
2022-12-31T20:54:01.141Z,59.06
2022-12-31T20:56:33.189Z,58.81
2022-12-31T20:59:03.035Z,58.58
2022-12-31T21:01:55.603Z,59.23
2022-12-31T21:04:22.346Z,59.46
2022-12-31T21:06:52.390Z,58.64
2022-12-31T21:09:24.394Z,59.56
2022-12-31T21:12:06.336Z,58.46
2022-12-31T21:14:39.857Z,58.88
2022-12-31T21:17:12.239Z,58.88
2022-12-31T21:19:41.715Z,58.14
2022-12-31T21:22:11.549Z,58.11
2022-12-31T21:24:43.557Z,57.04
2022-12-31T21:27:13.036Z,56.62
2022-12-31T21:30:16.422Z,57.38
2022-12-31T21:32:31.854Z,56.48
2022-12-31T21:35:40.059Z,56.42
2022-12-31T21:37:58.434Z,54.78
2022-12-31T21:40:33.200Z,53.92
2022-12-31T21:43:02.812Z,53.60
2022-12-31T21:45:32.426Z,54.73
2022-12-31T21:48:14.502Z,53.14
2022-12-31T21:50:46.023Z,54.25
2022-12-31T21:53:20.231Z,54.53
2022-12-31T21:56:11.930Z,52.35
2022-12-31T21:58:43.347Z,51.34
2022-12-31T22:01:31.661Z,51.04
2022-12-31T22:04:01.195Z,52.38
2022-12-31T22:06:30.695Z,51.43
2022-12-31T22:09:00.453Z,50.92
2022-12-31T22:11:32.468Z,51.68
2022-12-31T22:14:01.843Z,52.65
2022-12-31T22:16:31.266Z,51.02
2022-12-31T22:19:00.726Z,51.07
2022-12-31T22:21:30.213Z,50.89
2022-12-31T22:24:03.080Z,50.83
2022-12-31T22:26:35.105Z,50.23
2022-12-31T22:29:04.482Z,51.11
2022-12-31T22:31:33.948Z,51.31
2022-12-31T22:34:03.377Z,51.06
2022-12-31T22:36:32.792Z,51.51
2022-12-31T22:39:02.210Z,50.18
2022-12-31T22:41:31.755Z,50.96
2022-12-31T22:44:05.129Z,50.87
2022-12-31T22:46:35.413Z,50.71
2022-12-31T22:49:07.101Z,50.78
2022-12-31T22:51:55.076Z,49.98
2022-12-31T22:54:26.128Z,50.22
2022-12-31T22:56:55.585Z,50.88
2022-12-31T22:59:27.791Z,51.02
2022-12-31T23:01:57.298Z,50.60
2022-12-31T23:04:26.863Z,50.83
2022-12-31T23:06:56.409Z,50.76
2022-12-31T23:09:38.366Z,50.47
2022-12-31T23:12:10.168Z,50.32
2022-12-31T23:14:54.663Z,50.44
2022-12-31T23:17:38.642Z,50.58
2022-12-31T23:20:22.549Z,51.36
2022-12-31T23:23:04.509Z,51.50
2022-12-31T23:25:34.792Z,50.20
2022-12-31T23:28:04.532Z,50.64
2022-12-31T23:30:36.736Z,50.52
2022-12-31T23:33:06.317Z,50.05
2022-12-31T23:35:36.199Z,50.37
2022-12-31T23:38:05.610Z,49.53
2022-12-31T23:40:36.843Z,49.78
2022-12-31T23:43:08.199Z,50.21
2022-12-31T23:45:40.338Z,50.69
2022-12-31T23:48:09.912Z,49.59
2022-12-31T23:50:39.344Z,50.23
2022-12-31T23:53:08.853Z,50.03
2022-12-31T23:55:38.360Z,49.60
2022-12-31T23:58:07.867Z,49.40
